Time;durP1;ratioP1;P1;durP2;ratioP2;P2;SDS_P1;SDS_P2;PMS_P1;PMS_P2;Temp;Humidity;BMP_temperature;BMP_pressure;BME280_temperature;BME280_humidity;BME280_pressure;Samples;Min_cycle;Max_cycle;Signal;HPM_P1;HPM_P2
2021/09/22 00:02:39;;;;;;;36.75;22.87;;;;;;;9.66;93.64;99715.66;4509331;77;21023;-84
2021/09/22 00:08:43;;;;;;;35.92;22.42;;;;;;;9.66;94.00;99700.62;4514895;77;21019;-82
2021/09/22 00:14:49;;;;;;;24.75;16.10;;;;;;;9.66;93.94;99689.70;4505580;77;21456;-83
2021/09/22 00:20:52;;;;;;;34.35;22.30;;;;;;;9.67;94.32;99678.41;4443179;77;20990;-83
2021/09/22 00:26:53;;;;;;;37.80;23.77;;;;;;;9.64;94.56;99678.31;4507116;77;21035;-84
2021/09/22 00:33:00;;;;;;;32.67;21.95;;;;;;;9.67;94.51;99674.87;4507392;77;21519;-83
2021/09/22 00:39:06;;;;;;;33.58;22.10;;;;;;;9.65;94.61;99662.14;4511446;77;21095;-83
2021/09/22 00:45:13;;;;;;;35.08;19.85;;;;;;;9.68;95.01;99666.31;4508426;77;20992;-83
2021/09/22 00:51:17;;;;;;;21.53;13.27;;;;;;;9.61;94.50;99651.68;4517072;77;21769;-83
2021/09/22 00:57:26;;;;;;;27.40;18.67;;;;;;;9.56;94.94;99645.91;4506403;77;21022;-82
2021/09/22 01:03:29;;;;;;;31.57;19.15;;;;;;;9.56;95.00;99643.17;4497498;77;21408;-83
2021/09/22 01:09:45;;;;;;;27.17;18.60;;;;;;;9.53;94.96;99628.84;4504379;77;21040;-84
2021/09/22 01:15:47;;;;;;;28.35;17.90;;;;;;;9.48;95.12;99623.64;4488988;77;21102;-83
2021/09/22 01:21:55;;;;;;;26.00;17.80;;;;;;;9.45;95.25;99616.95;4514107;77;21004;-84
2021/09/22 01:28:22;;;;;;;24.23;17.12;;;;;;;9.43;95.33;99609.67;4498802;77;21089;-83
2021/09/22 01:34:22;;;;;;;21.05;15.38;;;;;;;9.45;95.49;99606.02;4407130;78;21024;-82
2021/09/22 01:40:30;;;;;;;27.70;17.95;;;;;;;9.44;95.84;99598.95;4520958;77;21644;-83
2021/09/22 01:46:33;;;;;;;25.68;15.78;;;;;;;9.45;96.23;99590.98;4527459;77;20961;-84
2021/09/22 01:52:37;;;;;;;24.65;15.35;;;;;;;9.45;95.94;99571.86;4556570;76;20969;-84
2021/09/22 01:58:54;;;;;;;25.93;17.93;;;;;;;9.46;96.54;99576.73;4558873;76;20980;-84
2021/09/22 02:04:59;;;;;;;23.95;13.10;;;;;;;9.47;96.65;99572.28;4554588;76;21001;-85
2021/09/22 02:11:00;;;;;;;20.10;13.18;;;;;;;9.47;96.79;99572.28;4551704;76;20963;-82
2021/09/22 02:17:04;;;;;;;15.48;11.33;;;;;;;9.45;96.80;99569.13;4570084;76;21046;-83
2021/09/22 02:23:08;;;;;;;14.53;10.43;;;;;;;9.43;96.96;99568.68;4566045;76;20973;-82
2021/09/22 02:29:16;;;;;;;15.80;11.25;;;;;;;9.39;97.03;99566.45;4555392;76;21028;-82
2021/09/22 02:35:18;;;;;;;18.30;11.28;;;;;;;9.40;97.15;99558.45;4546628;76;20987;-86
2021/09/22 02:41:35;;;;;;;16.62;11.68;;;;;;;9.37;97.23;99555.06;4486554;76;20983;-83
2021/09/22 02:47:37;;;;;;;18.65;11.50;;;;;;;9.34;97.39;99560.44;4556583;76;20972;-83
2021/09/22 03:00:02;;;;;;;12.93;8.83;;;;;;;9.38;97.55;99547.67;4317434;80;21098;-84
2021/09/22 03:06:06;;;;;;;12.30;9.13;;;;;;;9.36;97.48;99534.92;4527922;76;21644;-83
2021/09/22 03:12:08;;;;;;;12.75;6.97;;;;;;;9.32;97.48;99540.30;4528897;76;21218;-85
2021/09/22 03:18:09;;;;;;;10.43;6.45;;;;;;;9.27;97.38;99536.45;4535373;76;21533;-83
2021/09/22 03:24:25;;;;;;;;;;;;;;;;;;;;;
2021/09/22 03:30:27;;;;;;;12.30;7.00;;;;;;;9.23;97.63;99531.50;4513353;75;21346;-84
2021/09/22 03:36:40;;;;;;;15.85;8.23;;;;;;;9.17;97.49;99528.01;4523138;76;21015;-83
2021/09/22 03:42:45;;;;;;;20.27;9.78;;;;;;;9.19;97.63;99529.83;4488080;78;21011;-83
2021/09/22 03:48:57;;;;;;;17.05;8.60;;;;;;;9.17;97.68;99529.37;4474630;77;21104;-83
2021/09/22 03:55:00;;;;;;;17.90;10.08;;;;;;;9.15;97.74;99530.30;4510460;77;21054;-84
2021/09/22 04:01:15;;;;;;;;;;;;;;;;;;;;;
2021/09/22 04:07:17;;;;;;;16.45;8.15;;;;;;;9.09;97.63;99522.14;4467819;77;21098;-84
2021/09/22 04:13:20;;;;;;;17.47;8.20;;;;;;;9.08;97.80;99527.40;4506176;77;20928;-83
2021/09/22 04:19:40;;;;;;;;;;;;;;;;;;;;;
2021/09/22 04:25:36;;;;;;;13.95;8.30;;;;;;;9.03;97.84;99518.90;4503291;77;21009;-82
2021/09/22 04:31:40;;;;;;;13.43;9.60;;;;;;;8.99;97.78;99522.09;4494536;77;20991;-83
2021/09/22 04:38:02;;;;;;;16.55;9.65;;;;;;;8.98;97.84;99530.08;4532022;76;20969;-83
2021/09/22 04:44:22;;;;;;;12.55;8.10;;;;;;;8.97;97.95;99522.23;4539928;76;21034;-82
2021/09/22 04:50:41;;;;;;;14.10;7.85;;;;;;;8.94;98.01;99523.72;4530231;76;21069;-83
2021/09/22 04:57:01;;;;;;;12.63;8.05;;;;;;;8.95;98.15;99520.42;4457074;76;21026;-83
2021/09/22 05:03:20;;;;;;;11.63;7.87;;;;;;;8.94;98.20;99525.08;4473471;78;21038;-82
2021/09/22 05:09:44;;;;;;;11.78;7.42;;;;;;;8.94;98.35;99529.17;4453003;78;20978;-82
2021/09/22 05:16:04;;;;;;;11.48;7.92;;;;;;;8.94;98.30;99552.98;4447194;76;21051;-82
2021/09/22 05:22:25;;;;;;;14.85;7.65;;;;;;;8.94;98.44;99553.75;4481980;76;21050;-82
2021/09/22 05:28:45;;;;;;;14.20;7.85;;;;;;;8.95;98.51;99555.36;4424171;78;21036;-82
2021/09/22 05:35:07;;;;;;;15.18;8.28;;;;;;;8.93;98.44;99559.00;4475371;78;21027;-81
2021/09/22 05:41:26;;;;;;;16.32;8.50;;;;;;;8.96;98.64;99562.39;4465020;78;20979;-82
2021/09/22 05:47:47;;;;;;;14.58;8.75;;;;;;;8.97;98.67;99559.87;4464207;77;21073;-83
2021/09/22 05:54:06;;;;;;;16.82;9.25;;;;;;;9.00;98.54;99562.50;4414024;78;21093;-84
2021/09/22 06:00:26;;;;;;;16.65;9.15;;;;;;;9.00;98.72;99564.66;4401840;78;21082;-82
2021/09/22 06:06:58;;;;;;;18.77;10.45;;;;;;;9.01;98.73;99566.23;4444781;78;21587;-82
2021/09/22 06:13:13;;;;;;;;;;;;;;;9.03;98.96;99569.42;4369419;78;21531;-81
2021/09/22 06:19:14;;;;;;;18.82;10.40;;;;;;;9.07;99.21;99563.47;4441866;78;20145;-82
2021/09/22 06:25:16;;;;;;;17.65;9.45;;;;;;;9.09;98.93;99563.11;4438426;78;21064;-82
2021/09/22 06:31:18;;;;;;;13.03;8.50;;;;;;;9.07;98.90;99564.03;4384242;79;21038;-81
2021/09/22 06:37:21;;;;;;;15.15;8.73;;;;;;;9.15;99.24;99572.06;4390218;79;21460;-82
2021/09/22 06:43:24;;;;;;;15.20;8.78;;;;;;;9.21;99.05;99587.05;4375744;79;20995;-82
2021/09/22 06:49:26;;;;;;;16.77;8.55;;;;;;;9.27;99.08;99581.53;4386256;79;21039;-83
2021/09/22 06:55:27;;;;;;;16.02;8.78;;;;;;;9.34;99.04;99585.03;4469913;78;21021;-81
2021/09/22 07:01:29;;;;;;;14.53;9.13;;;;;;;9.38;98.82;99581.83;4472885;78;21021;-81
2021/09/22 07:07:31;;;;;;;15.60;8.70;;;;;;;9.41;98.98;99588.72;4444583;77;20985;-81
2021/09/22 07:13:35;;;;;;;15.35;9.18;;;;;;;9.44;99.19;99589.37;4458969;77;21561;-84
2021/09/22 07:19:36;;;;;;;14.73;8.93;;;;;;;9.48;99.20;99590.28;4460030;77;20974;-82
2021/09/22 07:25:41;;;;;;;15.68;8.93;;;;;;;9.52;98.94;99598.58;4417004;78;21019;-82
2021/09/22 07:31:44;;;;;;;13.88;9.08;;;;;;;9.51;98.75;99598.34;4470986;78;21013;-81
2021/09/22 07:37:46;;;;;;;16.35;8.45;;;;;;;9.50;98.84;99606.33;4470974;78;21468;-81
2021/09/22 07:43:48;;;;;;;14.75;9.55;;;;;;;9.53;98.97;99608.34;4471513;77;20959;-81
2021/09/22 07:50:00;;;;;;;16.37;9.30;;;;;;;9.50;99.00;99607.13;4466770;76;21297;-81
2021/09/22 07:56:11;;;;;;;15.25;9.43;;;;;;;9.54;98.88;99617.56;4485442;77;21012;-81
2021/09/22 08:02:18;;;;;;;16.17;8.48;;;;;;;9.62;99.03;99620.45;4509012;77;21476;-81
2021/09/22 08:08:19;;;;;;;15.75;9.58;;;;;;;9.66;99.01;99637.75;4492548;77;20978;-82
2021/09/22 08:14:29;;;;;;;17.37;11.80;;;;;;;9.67;98.83;99636.59;4508417;77;21043;-82
2021/09/22 08:20:27;;;;;;;24.80;16.00;;;;;;;9.54;98.42;99649.55;4486338;77;21025;-84
2021/09/22 08:26:28;;;;;;;12.88;8.25;;;;;;;9.38;98.77;99657.74;4494764;77;21004;-84
2021/09/22 08:32:30;;;;;;;6.67;4.25;;;;;;;9.31;98.89;99662.23;4508272;77;20960;-84
2021/09/22 08:38:31;;;;;;;7.95;7.03;;;;;;;9.16;98.77;99663.78;4499149;77;21046;-84
2021/09/22 08:44:34;;;;;;;5.67;4.12;;;;;;;9.20;99.43;99661.95;4506701;77;20956;-84
2021/09/22 08:50:37;;;;;;;16.73;9.00;;;;;;;9.33;99.12;99657.99;4505419;77;20978;-84
2021/09/22 08:56:42;;;;;;;7.58;5.05;;;;;;;9.39;99.04;99653.08;4501063;77;21013;-84
2021/09/22 09:02:47;;;;;;;11.60;3.62;;;;;;;9.47;99.13;99654.27;4511897;76;21001;-84
2021/09/22 09:15:33;;;;;;;10.10;5.95;;;;;;;9.74;98.60;99665.49;4494388;77;21011;-84
2021/09/22 09:28:40;;;;;;;17.90;7.20;;;;;;;10.28;97.92;99665.86;4275399;80;21065;-83
2021/09/22 09:35:16;;;;;;;9.28;5.10;;;;;;;10.75;98.32;99660.23;4323802;80;21010;-83
2021/09/22 09:41:49;;;;;;;5.78;4.65;;;;;;;11.28;98.05;99661.27;4449199;76;21010;-83
2021/09/22 09:48:18;;;;;;;10.58;4.67;;;;;;;12.01;97.40;99653.58;4540705;76;21483;-84
2021/09/22 09:54:24;;;;;;;6.42;4.75;;;;;;;11.87;96.41;99651.38;4540298;76;21012;-84
2021/09/22 10:00:45;;;;;;;7.23;5.07;;;;;;;12.05;97.08;99642.06;4533180;76;21050;-83
2021/09/22 10:06:48;;;;;;;6.95;3.83;;;;;;;12.05;96.24;99647.55;4553105;76;21574;-85
2021/09/22 10:12:50;;;;;;;4.30;3.60;;;;;;;11.86;95.97;99657.23;4549664;76;21379;-83
2021/09/22 10:19:00;;;;;;;7.83;3.77;;;;;;;11.72;95.70;99655.63;4561840;76;20964;-83
2021/09/22 10:25:05;;;;;;;6.55;4.25;;;;;;;11.61;95.71;99656.80;4455107;78;21463;-83
2021/09/22 10:31:35;;;;;;;12.45;7.42;;;;;;;11.43;95.28;99662.56;4427310;78;21005;-83
2021/09/22 10:37:37;;;;;;;16.23;8.90;;;;;;;11.16;94.88;99666.34;4421903;78;21522;-83
2021/09/22 10:43:44;;;;;;;10.43;6.90;;;;;;;11.08;95.26;99664.63;4430149;78;21000;-82
2021/09/22 10:50:45;;;;;;;;;;;;;;;;;;;;;
2021/09/22 10:56:55;;;;;;;8.70;4.40;;;;;;;10.88;94.54;99667.16;4386004;79;21587;-83
2021/09/22 11:02:56;;;;;;;7.58;4.55;;;;;;;10.88;94.66;99660.31;4381689;79;21051;-85
2021/09/22 11:09:07;;;;;;;7.50;5.10;;;;;;;10.84;94.73;99675.86;4387685;79;20996;-83
2021/09/22 11:15:09;;;;;;;6.40;4.75;;;;;;;10.74;94.21;99666.87;4376164;79;21020;-83
2021/09/22 11:21:11;;;;;;;7.53;4.75;;;;;;;10.70;94.62;99666.78;4374267;79;28231;-84
2021/09/22 11:27:16;;;;;;;9.73;5.92;;;;;;;10.77;94.93;99664.77;4239311;82;21036;-83
2021/09/22 11:33:21;;;;;;;8.43;5.40;;;;;;;10.79;94.66;99665.22;4177298;82;21057;-83
2021/09/22 11:39:25;;;;;;;9.60;5.87;;;;;;;10.80;94.52;99661.31;4288044;80;21670;-84
2021/09/22 11:45:51;;;;;;;7.75;5.22;;;;;;;10.86;94.79;99667.52;4235469;81;21059;-83
2021/09/22 11:52:21;;;;;;;6.33;4.72;;;;;;;10.91;94.80;99667.23;4238886;82;21065;-83
2021/09/22 11:58:27;;;;;;;7.20;4.33;;;;;;;10.91;94.68;99674.66;4284165;80;36126;-83
2021/09/22 12:04:42;;;;;;;10.28;4.62;;;;;;;10.87;94.35;99670.47;4273037;81;21014;-82
2021/09/22 12:10:46;;;;;;;8.03;5.20;;;;;;;10.89;94.62;99669.53;4286159;81;21549;-82
2021/09/22 12:16:47;;;;;;;10.23;5.33;;;;;;;10.89;94.30;99679.69;4161527;81;36340;-82
2021/09/22 12:23:07;;;;;;;7.78;5.42;;;;;;;10.89;94.46;99683.23;4102771;84;21059;-83
2021/09/22 12:29:12;;;;;;;8.93;5.28;;;;;;;10.90;94.61;99683.44;4166587;83;21093;-82
2021/09/22 12:35:15;;;;;;;10.53;5.60;;;;;;;10.94;94.50;99690.36;4101578;84;21086;-81
2021/09/22 12:41:21;;;;;;;7.83;5.65;;;;;;;10.98;94.69;99692.59;4087957;85;21032;-83
2021/09/22 12:47:25;;;;;;;11.50;5.62;;;;;;;11.09;94.74;99690.28;4099392;85;21042;-83
2021/09/22 12:53:31;;;;;;;10.32;5.75;;;;;;;11.19;95.02;99688.11;4095425;85;21070;-83
2021/09/22 12:59:39;;;;;;;;;;;;;;;11.28;94.92;99692.22;4035204;86;21095;-82
2021/09/22 13:06:28;;;;;;;7.78;5.03;;;;;;;11.35;94.77;99695.11;3769498;87;20210;-82
2021/09/22 13:12:32;;;;;;;7.33;4.60;;;;;;;11.38;94.26;99690.84;3971999;89;21367;-82
2021/09/22 13:18:33;;;;;;;7.22;4.35;;;;;;;11.47;94.23;99688.64;4011105;86;21098;-81
2021/09/22 13:24:38;;;;;;;6.60;4.28;;;;;;;11.43;93.32;99689.17;4020890;86;21071;-83
2021/09/22 13:30:43;;;;;;;5.80;4.08;;;;;;;11.42;92.92;99694.42;4031494;86;21060;-82
2021/09/22 13:36:46;;;;;;;4.95;4.10;;;;;;;11.36;92.94;99704.10;4028475;87;21076;-82
2021/09/22 13:42:47;;;;;;;4.83;3.55;;;;;;;11.29;92.76;99704.75;4047106;86;21585;-82
2021/09/22 13:48:51;;;;;;;5.53;3.98;;;;;;;11.24;92.39;99711.12;3956269;88;21098;-83
2021/09/22 13:54:54;;;;;;;7.72;3.72;;;;;;;11.18;92.59;99713.94;4086496;85;20983;-81
2021/09/22 14:00:59;;;;;;;4.45;3.72;;;;;;;11.07;92.87;99706.88;4093806;85;21093;-82
2021/09/22 14:07:00;;;;;;;14.33;6.47;;;;;;;11.01;92.92;99704.19;4103884;85;21055;-81
2021/09/22 14:13:02;;;;;;;12.70;7.22;;;;;;;11.10;93.05;99711.64;4031853;86;21013;-82
2021/09/22 14:19:04;;;;;;;15.78;8.23;;;;;;;11.20;93.34;99711.05;4001810;87;21589;-82
2021/09/22 14:25:08;;;;;;;8.95;5.85;;;;;;;11.26;93.13;99708.82;4079857;84;21616;-82
2021/09/22 14:31:10;;;;;;;11.05;5.40;;;;;;;11.33;92.97;99697.98;4093095;84;21512;-82
2021/09/22 14:37:13;;;;;;;9.85;5.58;;;;;;;11.35;92.59;99707.44;4100781;85;21029;-83
2021/09/22 14:43:14;;;;;;;9.40;4.97;;;;;;;11.42;92.73;99698.53;4092425;85;21003;-82
2021/09/22 14:49:16;;;;;;;7.28;4.58;;;;;;;11.41;92.72;99692.84;4084971;84;21100;-81
2021/09/22 14:55:20;;;;;;;7.70;5.03;;;;;;;11.46;92.56;99700.78;4080698;85;21063;-82
2021/09/22 15:01:21;;;;;;;6.65;4.58;;;;;;;11.48;92.03;99692.99;4081361;85;21047;-82
2021/09/22 15:07:22;;;;;;;7.45;4.80;;;;;;;11.47;91.84;99692.76;4116278;84;21144;-82
2021/09/22 15:13:23;;;;;;;7.22;4.95;;;;;;;11.42;91.77;99700.70;4100705;85;21085;-82
2021/09/22 15:19:25;;;;;;;9.60;5.97;;;;;;;11.37;91.75;99701.00;4040492;86;21143;-82
2021/09/22 15:25:26;;;;;;;8.85;5.08;;;;;;;11.21;91.97;99696.20;4073388;85;37360;-82
2021/09/22 15:31:28;;;;;;;9.70;5.83;;;;;;;11.22;91.78;99699.15;4028037;86;21050;-82
2021/09/22 15:37:30;;;;;;;10.43;6.62;;;;;;;11.13;91.78;99706.81;4096525;84;21086;-83
2021/09/22 15:43:31;;;;;;;10.00;6.92;;;;;;;11.05;91.82;99705.88;4141277;84;21058;-83
2021/09/22 15:49:34;;;;;;;9.38;7.40;;;;;;;10.98;92.25;99706.28;4119553;84;21078;-83
2021/09/22 15:55:36;;;;;;;14.83;8.63;;;;;;;10.97;92.25;99710.98;4155223;83;21099;-83
2021/09/22 16:01:37;;;;;;;13.43;8.90;;;;;;;10.92;92.23;99708.53;4180151;83;21047;-83
2021/09/22 16:07:39;;;;;;;14.60;9.95;;;;;;;10.88;92.38;99699.43;4182414;83;21066;-83
2021/09/22 16:13:40;;;;;;;14.78;10.60;;;;;;;10.85;92.53;99701.52;4182078;83;21619;-83
2021/09/22 16:19:42;;;;;;;16.30;10.13;;;;;;;10.73;92.24;99703.03;4177733;83;20996;-83
2021/09/22 16:25:43;;;;;;;18.60;10.95;;;;;;;10.63;92.37;99707.69;4146606;83;21499;-82
2021/09/22 16:31:45;;;;;;;18.87;10.23;;;;;;;10.62;92.64;99699.27;4184458;83;21059;-83
2021/09/22 16:37:47;;;;;;;16.20;11.53;;;;;;;10.55;92.62;99702.43;4118971;85;21097;-83
2021/09/22 16:43:49;;;;;;;19.25;11.93;;;;;;;10.48;92.65;99702.26;4183699;84;21533;-81
2021/09/22 16:49:50;;;;;;;18.50;11.53;;;;;;;10.41;92.86;99693.34;4129515;84;21126;-81
2021/09/22 16:55:57;;;;;;;19.32;12.15;;;;;;;10.52;93.43;99702.55;4156669;84;21043;-82
2021/09/22 17:02:12;;;;;;;18.27;12.85;;;;;;;10.52;93.46;99708.03;4161001;84;21024;-82
2021/09/22 17:08:05;;;;;;;19.02;12.60;;;;;;;10.48;93.36;99703.63;4154555;84;20984;-82
2021/09/22 17:14:06;;;;;;;23.67;15.35;;;;;;;10.45;93.85;99714.73;4150534;84;21110;-82
2021/09/22 17:20:09;;;;;;;24.95;15.70;;;;;;;10.45;93.89;99711.98;4188829;83;21079;-82
2021/09/22 17:26:11;;;;;;;23.67;15.30;;;;;;;10.46;93.87;99723.74;4188300;83;21022;-83
2021/09/22 17:32:12;;;;;;;26.82;16.82;;;;;;;10.42;93.80;99714.08;4182724;83;21074;-82
2021/09/22 17:38:15;;;;;;;30.90;16.93;;;;;;;10.40;93.86;99721.03;4082116;83;10000431;-81
2021/09/22 17:44:16;;;;;;;28.20;17.35;;;;;;;10.39;94.15;99717.52;4167677;83;20983;-82
2021/09/22 17:50:18;;;;;;;26.97;16.70;;;;;;;10.34;94.42;99717.79;4195355;83;20988;-82
2021/09/22 17:56:19;;;;;;;26.55;18.40;;;;;;;10.34;94.44;99719.72;4250755;82;20988;-82
2021/09/22 18:02:21;;;;;;;34.27;21.37;;;;;;;10.33;94.74;99714.84;4286231;82;20967;-82
2021/09/22 18:08:22;;;;;;;32.67;20.65;;;;;;;10.33;94.67;99718.15;4208915;83;20988;-82
2021/09/22 18:14:24;;;;;;;36.73;22.30;;;;;;;10.28;94.79;99710.20;4183642;82;21023;-82
2021/09/22 18:20:26;;;;;;;41.37;23.30;;;;;;;10.27;94.85;99710.00;4253397;82;20956;-82
2021/09/22 18:26:28;;;;;;;35.75;23.10;;;;;;;10.27;95.12;99708.62;4249270;82;21535;-83
2021/09/22 18:32:39;;;;;;;43.08;25.15;;;;;;;10.25;95.00;99709.55;4233302;82;20959;-82
2021/09/22 18:38:40;;;;;;;38.20;24.75;;;;;;;10.27;95.07;99705.33;4300089;81;21031;-82
2021/09/22 18:44:47;;;;;;;41.10;26.05;;;;;;;10.27;94.90;99703.95;4284182;82;21049;-82
2021/09/22 18:50:50;;;;;;;43.80;27.05;;;;;;;10.26;95.06;99707.83;4279226;82;21102;-82
2021/09/22 18:56:51;;;;;;;40.30;25.08;;;;;;;10.26;95.26;99696.87;4264777;82;21070;-83
2021/09/22 19:02:52;;;;;;;43.33;25.90;;;;;;;10.26;95.23;99698.81;4284714;82;21062;-82
2021/09/22 19:08:54;;;;;;;44.85;29.35;;;;;;;10.25;95.42;99686.30;4158340;84;20996;-82
2021/09/22 19:14:55;;;;;;;48.02;29.20;;;;;;;10.21;95.41;99684.83;4257919;82;21042;-82
2021/09/22 19:20:56;;;;;;;47.78;29.02;;;;;;;10.13;95.35;99687.18;4236923;82;21035;-82
2021/09/22 19:26:58;;;;;;;48.78;29.55;;;;;;;10.15;95.58;99680.02;4254617;82;21709;-83
2021/09/22 19:32:59;;;;;;;45.52;28.42;;;;;;;10.17;95.77;99686.70;4232424;82;21092;-82
2021/09/22 19:39:02;;;;;;;48.92;28.65;;;;;;;10.19;95.83;99682.24;4303148;81;21535;-82
2021/09/22 19:45:05;;;;;;;47.33;28.02;;;;;;;10.19;95.56;99689.89;4298028;81;21012;-82
2021/09/22 19:51:07;;;;;;;46.13;26.55;;;;;;;10.16;95.83;99689.80;4271931;81;21020;-82
2021/09/22 19:57:09;;;;;;;47.43;27.87;;;;;;;10.18;95.95;99697.86;4263626;82;21544;-82
2021/09/22 20:03:11;;;;;;;44.00;27.73;;;;;;;10.19;95.89;99698.09;4253255;82;20990;-82
2021/09/22 20:09:13;;;;;;;52.83;28.35;;;;;;;10.18;96.02;99703.92;4246679;81;21019;-82
2021/09/22 20:15:14;;;;;;;47.78;27.20;;;;;;;10.18;96.13;99701.96;4249139;82;21058;-82
2021/09/22 20:21:15;;;;;;;47.60;27.40;;;;;;;10.18;96.24;99697.09;4225046;83;21059;-81
2021/09/22 20:27:17;;;;;;;42.33;26.45;;;;;;;10.15;96.07;99692.33;4201638;83;22868;-82
2021/09/22 20:33:19;;;;;;;48.25;28.50;;;;;;;10.16;96.24;99696.64;4282100;81;22184;-83
2021/09/22 20:39:21;;;;;;;48.50;29.45;;;;;;;10.13;96.29;99703.59;4193034;81;21109;-82
2021/09/22 20:45:23;;;;;;;49.38;26.50;;;;;;;10.11;96.39;99696.91;4196594;83;21008;-81
2021/09/22 20:51:26;;;;;;;52.27;28.32;;;;;;;10.10;96.57;99698.83;4197204;83;21027;-81
2021/09/22 20:57:28;;;;;;;50.35;28.17;;;;;;;10.12;96.69;99696.55;4285447;80;21050;-82
2021/09/22 21:03:32;;;;;;;55.63;29.60;;;;;;;10.11;96.63;99692.80;4295811;80;21066;-81
2021/09/22 21:09:33;;;;;;;46.90;28.02;;;;;;;10.12;96.87;99693.81;4301527;81;21023;-82
2021/09/22 21:15:36;;;;;;;47.58;29.40;;;;;;;10.11;96.93;99692.80;4297481;81;21046;-82
2021/09/22 21:21:39;;;;;;;46.63;27.17;;;;;;;10.10;97.02;99692.59;4297356;81;21043;-81
2021/09/22 21:27:40;;;;;;;43.87;26.17;;;;;;;10.07;96.97;99695.44;4289715;81;21056;-82
2021/09/22 21:33:45;;;;;;;47.40;24.90;;;;;;;10.06;96.98;99689.73;4297173;81;21003;-82
2021/09/22 21:39:47;;;;;;;38.95;24.55;;;;;;;10.06;97.12;99701.23;4297235;81;21027;-83
2021/09/22 21:45:49;;;;;;;40.33;25.10;;;;;;;10.07;97.22;99693.27;4319677;81;21022;-83
2021/09/22 21:51:50;;;;;;;38.85;24.77;;;;;;;10.06;97.12;99689.73;4303148;81;21019;-82
2021/09/22 21:57:51;;;;;;;40.05;25.55;;;;;;;10.07;97.34;99689.97;4302074;80;21109;-82
2021/09/22 22:03:52;;;;;;;51.13;26.48;;;;;;;10.07;97.37;99689.16;4202126;83;21561;-83
2021/09/22 22:09:54;;;;;;;43.45;26.10;;;;;;;10.04;97.26;99688.51;4296970;80;21077;-81
2021/09/22 22:15:55;;;;;;;45.35;26.65;;;;;;;10.03;97.37;99685.53;4287391;81;21026;-82
2021/09/22 22:21:56;;;;;;;40.58;26.35;;;;;;;10.02;97.34;99683.39;4304370;80;21019;-82
2021/09/22 22:27:58;;;;;;;47.33;27.58;;;;;;;10.01;97.48;99672.78;4305185;81;21022;-81
2021/09/22 22:33:59;;;;;;;46.10;26.85;;;;;;;10.02;97.43;99673.02;4303014;81;21030;-82
2021/09/22 22:40:01;;;;;;;49.00;27.70;;;;;;;10.01;97.59;99667.31;4293307;80;21681;-82
2021/09/22 22:46:03;;;;;;;44.90;25.50;;;;;;;10.00;97.54;99664.36;4281940;80;21580;-81
2021/09/22 22:52:07;;;;;;;47.90;28.00;;;;;;;9.99;97.61;99662.20;4287877;81;20987;-82
2021/09/22 22:58:10;;;;;;;48.65;28.70;;;;;;;9.99;97.52;99662.79;4296667;80;21015;-82
2021/09/22 23:04:12;;;;;;;47.08;27.80;;;;;;;10.00;97.57;99658.33;4305703;81;21011;-82
2021/09/22 23:10:13;;;;;;;47.98;29.63;;;;;;;9.96;97.67;99656.06;4295494;80;21046;-82
2021/09/22 23:16:16;;;;;;;51.23;29.92;;;;;;;9.98;97.79;99654.34;4301253;81;21499;-82
2021/09/22 23:28:38;;;;;;;49.08;27.27;;;;;;;9.99;97.86;99667.66;4296245;81;20991;-83
2021/09/22 23:34:39;;;;;;;51.88;28.00;;;;;;;9.96;97.71;99665.64;4250058;82;21047;-83
2021/09/22 23:40:41;;;;;;;48.23;28.92;;;;;;;9.96;97.94;99664.87;4242869;82;21548;-81
2021/09/22 23:46:42;;;;;;;43.73;25.62;;;;;;;9.94;97.86;99665.78;4254243;82;20977;-82
2021/09/22 23:52:44;;;;;;;46.73;27.65;;;;;;;9.91;97.91;99664.56;4251303;82;21083;-82
2021/09/22 23:58:46;;;;;;;49.25;29.60;;;;;;;9.88;97.91;99661.14;4269606;82;21571;-82
